Time;durP1;ratioP1;P1;durP2;ratioP2;P2;SDS_P1;SDS_P2;PMS_P1;PMS_P2;Temp;Humidity;BMP_temperature;BMP_pressure;BME280_temperature;BME280_humidity;BME280_pressure;Samples;Min_cycle;Max_cycle;Signal;HPM_P1;HPM_P2
2021/10/17 00:01:25;;;;;;;22.55;15.75;;;8.80;79.20;;;;;;5086344;28;20050;-78
2021/10/17 00:03:51;;;;;;;22.42;15.93;;;8.80;79.30;;;;;;5086811;28;20016;-77
2021/10/17 00:06:18;;;;;;;24.20;15.98;;;8.80;79.20;;;;;;5079178;28;20039;-78
2021/10/17 00:08:44;;;;;;;20.33;15.05;;;8.80;79.90;;;;;;5080499;28;20050;-77
2021/10/17 00:11:10;;;;;;;21.05;13.98;;;8.80;79.20;;;;;;5083436;28;20060;-77
2021/10/17 00:13:36;;;;;;;22.75;15.48;;;8.80;79.10;;;;;;5099559;28;20024;-77
2021/10/17 00:16:02;;;;;;;21.67;14.98;;;8.70;79.10;;;;;;5080333;28;20064;-76
2021/10/17 00:18:29;;;;;;;21.65;14.43;;;8.80;79.10;;;;;;5079085;28;20029;-77
2021/10/17 00:20:55;;;;;;;21.80;15.00;;;8.70;79.30;;;;;;5080350;28;20059;-76
2021/10/17 00:23:21;;;;;;;19.73;14.38;;;8.70;79.40;;;;;;5080095;28;20065;-77
2021/10/17 00:25:47;;;;;;;24.02;15.25;;;8.70;79.60;;;;;;5079790;28;20036;-76
2021/10/17 00:28:13;;;;;;;21.80;14.40;;;8.70;79.50;;;;;;5093300;28;20024;-77
2021/10/17 00:30:39;;;;;;;19.10;14.73;;;8.70;79.50;;;;;;5080203;28;20035;-77
2021/10/17 00:33:06;;;;;;;20.00;13.85;;;8.70;79.50;;;;;;5091806;28;20107;-78
2021/10/17 00:35:33;;;;;;;21.58;14.95;;;8.60;79.40;;;;;;5091666;28;20544;-78
2021/10/17 00:37:58;;;;;;;23.15;15.68;;;8.60;79.40;;;;;;5079725;28;20082;-78
2021/10/17 00:40:24;;;;;;;20.55;14.57;;;8.70;79.90;;;;;;5080059;28;20024;-78
2021/10/17 00:42:51;;;;;;;20.40;14.32;;;8.70;79.60;;;;;;5088307;28;20043;-78
2021/10/17 00:45:20;;;;;;;20.70;14.18;;;8.60;79.70;;;;;;5090254;28;20020;-80
2021/10/17 00:47:46;;;;;;;21.20;15.05;;;8.60;79.60;;;;;;5079574;28;20024;-78
2021/10/17 00:50:12;;;;;;;22.67;15.23;;;8.60;79.60;;;;;;5079783;28;20020;-77
2021/10/17 00:52:42;;;;;;;23.55;14.40;;;8.60;79.70;;;;;;5079513;28;20503;-77
2021/10/17 00:55:15;;;;;;;23.60;15.40;;;8.60;79.50;;;;;;5079579;28;20028;-77
2021/10/17 00:57:43;;;;;;;20.92;14.77;;;8.60;79.60;;;;;;5079238;28;20020;-78
2021/10/17 01:00:10;;;;;;;19.75;14.13;;;8.60;79.50;;;;;;5079303;28;20028;-78
2021/10/17 01:02:36;;;;;;;20.50;14.57;;;8.50;79.40;;;;;;5092821;28;20017;-78
2021/10/17 01:05:03;;;;;;;22.45;14.82;;;8.60;79.50;;;;;;5079608;28;20099;-78
2021/10/17 01:07:29;;;;;;;24.10;16.17;;;8.60;79.50;;;;;;5079327;28;20020;-80
2021/10/17 01:09:55;;;;;;;25.42;16.27;;;8.50;79.80;;;;;;5079258;28;20035;-78
2021/10/17 01:12:21;;;;;;;25.30;15.82;;;8.60;80.40;;;;;;5092136;28;20453;-78
2021/10/17 01:14:47;;;;;;;25.65;15.18;;;8.60;80.50;;;;;;5088494;28;20072;-80
2021/10/17 01:17:13;;;;;;;26.58;17.45;;;8.60;80.90;;;;;;5079068;28;20029;-78
2021/10/17 01:19:43;;;;;;;27.85;17.75;;;8.60;82.00;;;;;;5079188;28;20027;-78
2021/10/17 01:22:09;;;;;;;31.65;19.08;;;8.70;83.20;;;;;;5080230;28;20023;-78
2021/10/17 01:24:35;;;;;;;27.38;17.15;;;8.70;83.70;;;;;;5087438;28;20056;-78
2021/10/17 01:27:01;;;;;;;24.70;16.98;;;8.80;83.80;;;;;;5084065;28;20074;-78
2021/10/17 01:29:26;;;;;;;21.88;15.10;;;8.80;84.60;;;;;;5087195;28;20020;-78
2021/10/17 01:31:55;;;;;;;22.90;16.17;;;8.80;84.00;;;;;;5080700;28;20099;-78
2021/10/17 01:34:21;;;;;;;22.63;16.00;;;8.90;83.40;;;;;;5099474;28;20462;-79
2021/10/17 01:36:48;;;;;;;23.42;14.50;;;8.90;83.60;;;;;;5078424;28;20056;-80
2021/10/17 01:39:17;;;;;;;20.50;14.93;;;8.90;83.80;;;;;;5078816;28;20600;-79
2021/10/17 01:41:43;;;;;;;22.00;14.07;;;8.90;83.50;;;;;;5078863;28;20024;-79
2021/10/17 01:44:12;;;;;;;21.77;13.35;;;8.90;83.40;;;;;;5098105;28;20028;-77
2021/10/17 01:46:38;;;;;;;21.73;14.23;;;9.00;83.70;;;;;;5077466;28;20451;-77
2021/10/17 01:49:06;;;;;;;21.17;14.55;;;9.00;83.90;;;;;;5078824;28;20028;-78
2021/10/17 01:51:32;;;;;;;19.77;14.80;;;9.00;84.00;;;;;;5078740;28;20541;-78
2021/10/17 01:53:58;;;;;;;21.02;13.95;;;9.00;84.50;;;;;;5078320;28;20120;-77
2021/10/17 01:56:24;;;;;;;20.70;14.60;;;9.00;84.20;;;;;;5078658;28;20052;-78
2021/10/17 01:58:50;;;;;;;20.30;13.93;;;9.00;84.20;;;;;;5077407;28;20025;-78
2021/10/17 02:01:16;;;;;;;21.33;14.20;;;9.00;84.90;;;;;;5084098;28;20020;-77
2021/10/17 02:03:42;;;;;;;20.50;13.73;;;9.00;84.30;;;;;;5085879;28;20021;-78
2021/10/17 02:06:08;;;;;;;19.83;12.98;;;9.10;84.10;;;;;;5078137;28;20062;-78
2021/10/17 02:08:33;;;;;;;17.30;11.63;;;9.10;83.90;;;;;;5078110;28;20441;-78
2021/10/17 02:10:59;;;;;;;18.25;12.35;;;9.10;83.60;;;;;;5079691;28;20094;-78
2021/10/17 02:13:25;;;;;;;18.10;13.13;;;9.10;83.70;;;;;;5098388;28;20502;-77
2021/10/17 02:15:51;;;;;;;17.95;12.40;;;9.10;83.80;;;;;;5078212;28;20036;-77
2021/10/17 02:18:17;;;;;;;22.67;14.25;;;9.10;83.60;;;;;;5078009;28;20016;-79
2021/10/17 02:20:43;;;;;;;21.90;13.70;;;9.10;84.30;;;;;;5077981;28;20108;-79
2021/10/17 02:23:09;;;;;;;21.85;13.57;;;9.10;84.80;;;;;;5078196;28;20012;-79
2021/10/17 02:25:35;;;;;;;18.95;13.52;;;9.10;84.90;;;;;;5077954;28;20025;-79
2021/10/17 02:28:01;;;;;;;25.25;16.25;;;9.10;85.00;;;;;;5090987;28;20405;-79
2021/10/17 02:30:27;;;;;;;22.80;15.77;;;9.10;85.90;;;;;;5078074;28;20025;-79
2021/10/17 02:32:53;;;;;;;21.05;13.90;;;9.10;86.70;;;;;;5087974;28;20429;-78
2021/10/17 02:35:19;;;;;;;21.55;14.43;;;9.10;86.10;;;;;;5090845;28;20031;-77
2021/10/17 02:37:46;;;;;;;18.45;12.82;;;9.10;85.50;;;;;;5077397;28;20044;-78
2021/10/17 02:40:12;;;;;;;17.17;12.38;;;9.10;85.00;;;;;;5077767;28;20059;-77
2021/10/17 02:42:38;;;;;;;17.05;12.52;;;9.10;84.50;;;;;;5084513;28;20013;-77
2021/10/17 02:45:05;;;;;;;17.98;12.10;;;9.10;84.20;;;;;;5090345;28;20067;-77
2021/10/17 02:47:31;;;;;;;19.30;12.32;;;9.10;84.00;;;;;;5077576;28;20036;-78
2021/10/17 02:49:57;;;;;;;18.95;12.38;;;9.10;84.30;;;;;;5077633;28;20029;-78
2021/10/17 02:52:23;;;;;;;17.55;12.27;;;9.10;84.40;;;;;;5077612;28;20405;-77
2021/10/17 02:54:49;;;;;;;16.38;12.10;;;9.10;83.90;;;;;;5077500;28;20029;-78
2021/10/17 02:57:15;;;;;;;17.10;12.23;;;9.10;83.80;;;;;;5075978;28;20557;-78
2021/10/17 02:59:41;;;;;;;18.42;12.10;;;9.10;83.70;;;;;;5077182;28;20383;-77
2021/10/17 03:02:07;;;;;;;19.85;13.00;;;9.10;83.60;;;;;;5090429;28;20020;-77
2021/10/17 03:04:33;;;;;;;16.88;12.15;;;9.00;83.70;;;;;;5077776;28;20047;-78
2021/10/17 03:06:58;;;;;;;15.93;11.20;;;9.00;83.80;;;;;;5077749;28;20027;-77
2021/10/17 03:09:24;;;;;;;17.60;11.18;;;9.00;83.70;;;;;;5077195;28;20028;-78
2021/10/17 03:11:50;;;;;;;17.90;12.90;;;9.00;83.60;;;;;;5085984;28;20020;-79
2021/10/17 03:14:16;;;;;;;17.23;12.52;;;9.00;83.50;;;;;;5089169;28;20136;-78
2021/10/17 03:16:42;;;;;;;15.75;11.63;;;9.00;83.70;;;;;;5077390;28;20024;-78
2021/10/17 03:19:09;;;;;;;16.98;11.45;;;9.00;83.80;;;;;;5084081;28;20063;-77
2021/10/17 03:21:34;;;;;;;19.30;11.98;;;9.00;83.70;;;;;;5082298;28;20391;-78
2021/10/17 03:24:00;;;;;;;16.20;11.85;;;9.00;83.60;;;;;;5076913;28;20029;-77
2021/10/17 03:26:26;;;;;;;16.42;11.00;;;9.00;83.60;;;;;;5077550;28;20047;-78
2021/10/17 03:28:52;;;;;;;16.58;10.95;;;9.00;83.30;;;;;;5088501;28;20938;-77
2021/10/17 03:31:18;;;;;;;14.10;10.10;;;8.90;83.20;;;;;;5076016;28;20386;-77
2021/10/17 03:33:43;;;;;;;17.35;12.20;;;8.90;83.00;;;;;;5094359;28;20028;-78
2021/10/17 03:36:09;;;;;;;15.43;10.88;;;8.90;82.90;;;;;;5082761;28;20052;-78
2021/10/17 03:38:35;;;;;;;17.60;11.57;;;8.90;83.00;;;;;;5076968;28;20097;-78
2021/10/17 03:41:01;;;;;;;16.65;11.60;;;8.80;82.90;;;;;;5078039;28;20060;-78
2021/10/17 03:43:27;;;;;;;17.05;11.93;;;8.80;83.10;;;;;;5082055;28;20486;-77
2021/10/17 03:45:53;;;;;;;14.98;10.88;;;8.80;83.10;;;;;;5094364;28;20100;-79
2021/10/17 03:48:18;;;;;;;16.67;12.25;;;8.80;83.10;;;;;;5076708;28;20028;-78
2021/10/17 03:50:44;;;;;;;17.33;11.57;;;8.80;83.00;;;;;;5081218;28;20030;-77
2021/10/17 03:53:10;;;;;;;16.55;11.85;;;8.70;83.00;;;;;;5088424;28;20404;-77
2021/10/17 03:55:37;;;;;;;16.88;11.57;;;8.70;83.00;;;;;;5077032;28;20028;-78
2021/10/17 03:58:04;;;;;;;17.50;11.30;;;8.70;82.90;;;;;;5076608;28;20538;-77
2021/10/17 04:00:30;;;;;;;16.25;11.80;;;8.60;82.90;;;;;;5076702;28;20027;-78
2021/10/17 04:02:56;;;;;;;17.30;11.90;;;8.60;82.90;;;;;;5093238;28;20035;-78
2021/10/17 04:05:22;;;;;;;16.25;12.38;;;8.60;82.90;;;;;;5089417;28;20018;-78
2021/10/17 04:07:47;;;;;;;17.00;12.48;;;8.60;82.90;;;;;;5090733;28;20376;-78
2021/10/17 04:10:13;;;;;;;18.42;12.80;;;8.50;82.80;;;;;;5076564;28;20441;-78
2021/10/17 04:12:40;;;;;;;16.33;12.05;;;8.50;82.90;;;;;;5090071;28;20020;-77
2021/10/17 04:15:06;;;;;;;17.02;12.45;;;8.50;82.80;;;;;;5096727;28;20030;-77
2021/10/17 04:17:32;;;;;;;16.90;12.85;;;8.40;82.80;;;;;;5080183;28;20028;-77
2021/10/17 04:19:58;;;;;;;17.67;12.52;;;8.40;83.20;;;;;;5085183;28;20426;-77
2021/10/17 04:22:24;;;;;;;18.75;12.00;;;8.40;83.50;;;;;;5083043;28;20035;-77
2021/10/17 04:24:50;;;;;;;16.73;11.88;;;8.40;83.20;;;;;;5100227;28;20399;-77
2021/10/17 04:27:16;;;;;;;15.73;11.13;;;8.40;83.10;;;;;;5091311;28;20114;-77
2021/10/17 04:29:42;;;;;;;14.95;11.18;;;8.40;82.90;;;;;;5088071;28;20089;-78
2021/10/17 04:32:08;;;;;;;13.07;10.23;;;8.40;82.70;;;;;;5085072;28;20036;-78
2021/10/17 04:34:34;;;;;;;16.42;11.57;;;8.40;82.80;;;;;;5098608;28;20024;-77
2021/10/17 04:37:02;;;;;;;17.77;11.13;;;8.40;82.90;;;;;;5078503;28;20502;-77
2021/10/17 04:39:28;;;;;;;14.23;10.93;;;8.40;83.00;;;;;;5079579;28;20020;-78
2021/10/17 04:41:57;;;;;;;15.63;11.45;;;8.40;83.10;;;;;;5081095;28;20020;-77
2021/10/17 04:44:24;;;;;;;17.13;11.68;;;8.50;83.60;;;;;;5099267;28;20077;-78
2021/10/17 04:46:49;;;;;;;17.30;12.15;;;8.50;84.10;;;;;;5091470;28;20502;-78
2021/10/17 04:49:15;;;;;;;17.77;12.20;;;8.50;84.00;;;;;;5079764;28;20024;-78
2021/10/17 04:51:41;;;;;;;22.88;12.88;;;8.50;83.80;;;;;;5079795;28;20032;-78
2021/10/17 04:54:07;;;;;;;14.45;11.30;;;8.40;83.80;;;;;;5078405;28;20040;-78
2021/10/17 04:56:33;;;;;;;18.05;11.52;;;8.50;83.70;;;;;;5079779;28;20078;-78
2021/10/17 04:58:59;;;;;;;16.52;11.93;;;8.50;84.30;;;;;;5090420;28;20118;-78
2021/10/17 05:01:27;;;;;;;16.77;11.07;;;8.50;84.40;;;;;;5089283;28;20103;-78
2021/10/17 05:03:53;;;;;;;16.85;11.98;;;8.50;84.60;;;;;;5094714;28;20043;-77
2021/10/17 05:06:19;;;;;;;17.40;11.88;;;8.50;84.80;;;;;;5079683;28;20020;-77
2021/10/17 05:08:45;;;;;;;16.75;11.30;;;8.50;85.00;;;;;;5082884;28;20024;-77
2021/10/17 05:11:11;;;;;;;19.05;10.93;;;8.50;84.70;;;;;;5095417;28;20521;-77
2021/10/17 05:13:37;;;;;;;18.00;11.70;;;8.50;84.70;;;;;;5083261;28;20707;-77
2021/10/17 05:16:03;;;;;;;17.80;12.07;;;8.50;85.20;;;;;;5079571;28;20044;-77
2021/10/17 05:18:29;;;;;;;16.50;11.40;;;8.50;85.60;;;;;;5092541;28;20149;-77
2021/10/17 05:20:55;;;;;;;16.77;11.13;;;8.50;85.50;;;;;;5098478;28;20024;-77
2021/10/17 05:23:23;;;;;;;17.02;11.90;;;8.50;85.10;;;;;;5079126;28;20028;-77
2021/10/17 05:25:48;;;;;;;17.38;12.35;;;8.50;85.40;;;;;;5078804;28;20398;-76
2021/10/17 05:28:14;;;;;;;16.73;12.00;;;8.60;85.90;;;;;;5080692;28;20032;-77
2021/10/17 05:30:40;;;;;;;15.23;11.05;;;8.50;85.80;;;;;;5078876;28;20082;-77
2021/10/17 05:33:06;;;;;;;16.17;11.57;;;8.60;85.50;;;;;;5091037;28;20034;-77
2021/10/17 05:35:32;;;;;;;16.48;11.07;;;8.50;85.50;;;;;;5090819;28;20474;-77
2021/10/17 05:37:58;;;;;;;16.25;11.70;;;8.50;85.20;;;;;;5098659;28;20024;-77
2021/10/17 05:40:24;;;;;;;14.95;11.65;;;8.50;85.00;;;;;;5096997;28;20107;-77
2021/10/17 05:42:50;;;;;;;15.90;11.20;;;8.50;85.00;;;;;;5097312;28;20047;-77
2021/10/17 05:45:15;;;;;;;16.38;11.32;;;8.50;85.30;;;;;;5092674;28;20080;-77
2021/10/17 05:47:41;;;;;;;15.90;10.93;;;8.50;85.40;;;;;;5096827;28;20028;-77
2021/10/17 05:50:08;;;;;;;15.38;10.57;;;8.50;85.40;;;;;;5080660;28;20028;-77
2021/10/17 05:52:34;;;;;;;15.07;10.60;;;8.50;85.00;;;;;;5093010;28;20481;-77
2021/10/17 05:55:00;;;;;;;14.70;10.85;;;8.50;85.00;;;;;;5082279;28;20020;-77
2021/10/17 05:57:25;;;;;;;18.25;11.10;;;8.50;85.00;;;;;;5096020;28;20364;-77
2021/10/17 05:59:51;;;;;;;15.52;10.77;;;8.50;85.40;;;;;;5082548;28;20390;-77
2021/10/17 06:02:18;;;;;;;15.70;10.75;;;8.50;84.90;;;;;;5092249;28;20020;-77
2021/10/17 06:04:45;;;;;;;14.05;9.85;;;8.50;84.90;;;;;;5078523;28;20024;-77
2021/10/17 06:07:11;;;;;;;15.48;10.00;;;8.40;84.90;;;;;;5078273;28;20099;-77
2021/10/17 06:09:39;;;;;;;13.15;9.85;;;8.40;84.70;;;;;;5078343;28;20013;-77
2021/10/17 06:12:06;;;;;;;14.50;10.25;;;8.40;84.70;;;;;;5090288;28;20090;-77
2021/10/17 06:14:32;;;;;;;16.58;10.43;;;8.40;84.90;;;;;;5089960;28;20017;-77
2021/10/17 06:16:58;;;;;;;14.43;10.18;;;8.40;85.00;;;;;;5077911;28;20025;-77
2021/10/17 06:19:25;;;;;;;19.00;11.35;;;8.40;84.70;;;;;;5078219;28;20048;-77
2021/10/17 06:21:51;;;;;;;14.20;10.50;;;8.40;85.20;;;;;;5078122;28;20368;-77
2021/10/17 06:24:16;;;;;;;14.45;9.95;;;8.40;85.10;;;;;;5077966;28;20071;-77
2021/10/17 06:26:42;;;;;;;15.10;10.68;;;8.30;84.70;;;;;;5079620;28;20497;-77
2021/10/17 06:29:10;;;;;;;15.35;10.20;;;8.30;84.90;;;;;;5096856;28;20028;-77
2021/10/17 06:31:37;;;;;;;15.70;10.45;;;8.30;85.20;;;;;;5082145;28;20016;-77
2021/10/17 06:34:03;;;;;;;17.88;10.93;;;8.30;85.20;;;;;;5093527;28;20032;-77
2021/10/17 06:36:30;;;;;;;16.45;11.60;;;8.20;85.30;;;;;;5088237;28;20051;-77
2021/10/17 06:38:55;;;;;;;15.45;10.57;;;8.30;85.80;;;;;;5097549;28;20036;-77
2021/10/17 06:41:21;;;;;;;15.32;11.13;;;8.20;85.60;;;;;;5082436;28;20038;-78
2021/10/17 06:43:47;;;;;;;14.90;10.88;;;8.20;85.60;;;;;;5082424;28;20032;-78
2021/10/17 06:46:13;;;;;;;16.02;10.60;;;8.20;85.30;;;;;;5077352;28;20021;-77
2021/10/17 06:48:39;;;;;;;17.15;11.40;;;8.30;86.00;;;;;;5077525;28;20092;-77
2021/10/17 06:51:05;;;;;;;14.07;10.18;;;8.30;86.10;;;;;;5077483;28;20529;-77
2021/10/17 06:53:30;;;;;;;16.00;10.65;;;8.30;85.90;;;;;;5085111;28;20036;-78
2021/10/17 06:55:56;;;;;;;13.80;9.95;;;8.30;85.50;;;;;;5079612;28;20039;-78
2021/10/17 06:58:22;;;;;;;13.48;10.00;;;8.30;85.10;;;;;;5089969;28;20119;-77
2021/10/17 07:00:48;;;;;;;14.00;9.80;;;8.40;85.00;;;;;;5082667;28;20066;-77
2021/10/17 07:03:14;;;;;;;14.02;9.40;;;8.40;84.80;;;;;;5077522;28;20032;-77
2021/10/17 07:05:39;;;;;;;12.88;9.80;;;8.50;84.90;;;;;;5076925;28;20032;-77
2021/10/17 07:08:05;;;;;;;16.17;11.02;;;8.50;85.50;;;;;;5095598;28;20036;-78
2021/10/17 07:10:31;;;;;;;12.80;9.15;;;8.50;85.10;;;;;;5081827;28;20044;-78
2021/10/17 07:12:57;;;;;;;16.17;11.43;;;8.60;85.20;;;;;;5090256;28;20028;-78
2021/10/17 07:15:23;;;;;;;14.68;10.32;;;8.60;85.50;;;;;;5081325;28;20082;-78
2021/10/17 07:17:49;;;;;;;17.25;11.40;;;8.60;86.00;;;;;;5089565;28;20119;-78
2021/10/17 07:20:14;;;;;;;16.25;11.13;;;8.70;86.30;;;;;;5087153;28;20090;-77
2021/10/17 07:22:40;;;;;;;14.77;10.30;;;8.80;86.50;;;;;;5097429;28;20054;-77
2021/10/17 07:25:06;;;;;;;16.13;10.38;;;8.80;86.60;;;;;;5090621;28;20032;-77
2021/10/17 07:27:32;;;;;;;14.80;10.95;;;8.80;86.40;;;;;;5082302;28;20479;-78
2021/10/17 07:29:58;;;;;;;15.07;10.82;;;8.80;86.10;;;;;;5095398;28;20958;-78
2021/10/17 07:32:24;;;;;;;13.65;10.18;;;8.90;86.30;;;;;;5094303;28;20024;-78
2021/10/17 07:34:50;;;;;;;19.23;11.82;;;8.90;86.80;;;;;;5094770;28;20027;-78
2021/10/17 07:37:15;;;;;;;16.73;11.43;;;9.00;86.30;;;;;;5097152;28;20098;-78
2021/10/17 07:39:41;;;;;;;16.30;10.68;;;9.00;86.30;;;;;;5086382;28;20020;-78
2021/10/17 07:42:07;;;;;;;14.05;10.52;;;9.00;86.50;;;;;;5088642;28;20028;-78
2021/10/17 07:44:33;;;;;;;14.30;10.70;;;9.10;86.70;;;;;;5094112;28;20024;-78
2021/10/17 07:46:59;;;;;;;14.23;10.38;;;9.20;86.70;;;;;;5077228;28;20491;-78
2021/10/17 07:49:25;;;;;;;18.13;10.82;;;9.20;86.70;;;;;;5091650;28;20020;-77
2021/10/17 07:51:50;;;;;;;17.70;11.55;;;9.20;86.70;;;;;;5077148;28;20059;-78
2021/10/17 07:54:16;;;;;;;16.08;11.35;;;9.30;86.80;;;;;;5088518;28;20045;-78
2021/10/17 07:56:42;;;;;;;17.20;10.52;;;9.30;86.80;;;;;;5077888;28;20054;-77
2021/10/17 07:59:08;;;;;;;14.05;10.52;;;9.40;86.60;;;;;;5083109;28;20511;-77
2021/10/17 08:01:33;;;;;;;14.45;9.90;;;9.40;86.60;;;;;;5099501;28;20020;-78
2021/10/17 08:03:59;;;;;;;14.52;9.88;;;9.50;86.60;;;;;;5087733;28;20505;-78
2021/10/17 08:06:25;;;;;;;15.77;9.82;;;9.60;86.50;;;;;;5081685;28;20032;-78
2021/10/17 08:08:51;;;;;;;16.10;10.82;;;9.60;86.60;;;;;;5080432;28;20036;-78
2021/10/17 08:11:17;;;;;;;14.75;10.05;;;9.70;86.40;;;;;;5084845;28;20052;-78
2021/10/17 08:13:44;;;;;;;13.52;9.85;;;9.70;86.50;;;;;;5094333;28;20028;-78
2021/10/17 08:16:11;;;;;;;15.63;10.30;;;9.80;86.10;;;;;;5085034;28;20032;-78
2021/10/17 08:18:37;;;;;;;12.32;9.45;;;9.90;86.20;;;;;;5080495;28;20025;-78
2021/10/17 08:21:04;;;;;;;13.93;9.52;;;9.90;86.10;;;;;;5078975;28;20032;-78
2021/10/17 08:23:29;;;;;;;14.65;9.02;;;9.90;85.90;;;;;;5079260;28;20031;-78
2021/10/17 08:25:55;;;;;;;13.57;9.88;;;10.00;85.80;;;;;;5090425;28;20024;-77
2021/10/17 08:28:21;;;;;;;14.07;9.32;;;10.00;85.80;;;;;;5083371;28;20031;-78
2021/10/17 08:30:48;;;;;;;13.50;9.73;;;10.10;85.80;;;;;;5088108;28;20051;-78
2021/10/17 08:33:15;;;;;;;11.95;9.18;;;10.10;86.00;;;;;;5100412;28;20036;-78
2021/10/17 08:35:41;;;;;;;12.20;9.15;;;10.20;85.80;;;;;;5089561;28;20020;-78
2021/10/17 08:38:07;;;;;;;13.88;9.82;;;10.20;86.00;;;;;;5081123;28;20044;-78
2021/10/17 08:40:32;;;;;;;12.65;9.63;;;10.30;86.00;;;;;;5095117;28;20027;-78
2021/10/17 08:42:59;;;;;;;13.55;9.60;;;10.30;86.00;;;;;;5097186;28;20016;-78
2021/10/17 08:45:26;;;;;;;14.45;9.60;;;10.40;86.50;;;;;;5095323;28;20479;-78
2021/10/17 08:47:52;;;;;;;13.32;9.73;;;10.60;86.60;;;;;;5083588;28;20384;-78
2021/10/17 08:50:18;;;;;;;12.80;9.95;;;10.70;86.40;;;;;;5091614;28;20445;-78
2021/10/17 08:52:45;;;;;;;13.88;9.75;;;10.80;86.10;;;;;;5081874;28;20058;-78
2021/10/17 08:55:12;;;;;;;12.95;9.60;;;11.00;85.90;;;;;;5094135;28;20035;-79
2021/10/17 08:57:38;;;;;;;13.73;9.27;;;11.00;85.90;;;;;;5083590;28;20093;-79
2021/10/17 09:00:28;;;;;;;14.10;10.25;;;11.20;86.00;;;;;;5079046;28;20017;-79
2021/10/17 09:02:54;;;;;;;12.77;9.38;;;11.40;86.60;;;;;;5080756;28;20025;-78
2021/10/17 09:05:33;;;;;;;14.77;9.27;;;11.70;86.70;;;;;;5079277;28;20032;-79
2021/10/17 09:07:59;;;;;;;12.23;8.95;;;11.90;86.50;;;;;;5082650;28;20023;-79
2021/10/17 09:10:26;;;;;;;13.18;9.60;;;12.20;86.60;;;;;;5079130;28;20024;-79
2021/10/17 09:12:51;;;;;;;13.80;9.63;;;12.50;86.60;;;;;;5092627;28;20024;-79
2021/10/17 09:15:20;;;;;;;12.77;9.27;;;12.80;86.20;;;;;;5079332;28;20510;-78
2021/10/17 09:18:06;;;;;;;12.32;8.75;;;12.90;85.00;;;;;;5084494;28;20597;-79
2021/10/17 09:20:32;;;;;;;10.63;8.10;;;13.00;84.30;;;;;;5098494;28;20571;-79
2021/10/17 09:23:03;;;;;;;10.52;8.32;;;13.10;84.20;;;;;;5089219;28;20017;-79
2021/10/17 09:25:32;;;;;;;12.77;9.07;;;13.20;83.50;;;;;;5083343;28;20051;-79
2021/10/17 09:27:59;;;;;;;11.35;8.63;;;13.30;83.00;;;;;;5092136;28;20031;-79
2021/10/17 09:30:25;;;;;;;12.38;8.52;;;13.30;82.70;;;;;;5085670;28;20073;-79
2021/10/17 09:32:51;;;;;;;12.15;8.77;;;13.30;82.30;;;;;;5086441;28;20504;-79
2021/10/17 09:35:17;;;;;;;12.88;8.82;;;13.30;81.90;;;;;;5086170;28;20093;-78
2021/10/17 09:37:44;;;;;;;14.02;8.93;;;13.20;81.70;;;;;;5086289;28;20123;-79
2021/10/17 09:40:19;;;;;;;10.93;8.35;;;13.20;81.70;;;;;;5090187;28;20479;-79
2021/10/17 09:43:03;;;;;;;14.35;9.10;;;13.20;81.60;;;;;;5093776;28;20084;-78
2021/10/17 09:45:30;;;;;;;13.30;9.23;;;13.30;81.50;;;;;;5081988;28;20051;-80
2021/10/17 09:47:56;;;;;;;12.05;8.98;;;13.30;81.10;;;;;;5095806;28;20028;-78
2021/10/17 09:50:22;;;;;;;14.25;9.07;;;13.20;81.10;;;;;;5085489;28;20035;-78
2021/10/17 09:52:53;;;;;;;14.18;8.88;;;13.30;81.20;;;;;;5092057;28;20033;-78
2021/10/17 09:55:20;;;;;;;13.20;9.40;;;13.30;81.00;;;;;;5078535;28;20024;-78
2021/10/17 09:57:45;;;;;;;14.32;9.90;;;13.30;80.90;;;;;;5078309;28;20024;-78
2021/10/17 10:00:11;;;;;;;11.10;8.75;;;13.30;80.90;;;;;;5078575;28;20078;-78
2021/10/17 10:02:38;;;;;;;13.52;8.80;;;13.30;81.10;;;;;;5091851;28;20032;-78
2021/10/17 10:05:04;;;;;;;14.90;9.75;;;13.30;81.50;;;;;;5078352;28;20556;-78
2021/10/17 10:07:31;;;;;;;10.98;9.10;;;13.50;82.00;;;;;;5078703;28;20085;-78
2021/10/17 10:10:00;;;;;;;13.32;9.50;;;13.80;82.30;;;;;;5077609;28;20025;-78
2021/10/17 10:12:27;;;;;;;13.95;9.40;;;14.10;81.90;;;;;;5092787;28;20032;-80
2021/10/17 10:14:55;;;;;;;14.13;9.43;;;14.40;82.00;;;;;;5083139;28;20024;-79
2021/10/17 10:17:22;;;;;;;12.68;9.25;;;14.90;82.60;;;;;;5079862;28;20032;-80
2021/10/17 10:19:49;;;;;;;13.30;9.65;;;15.50;82.10;;;;;;5088752;28;20538;-83
2021/10/17 10:22:16;;;;;;;12.07;8.88;;;16.10;80.90;;;;;;5089864;28;20561;-80
2021/10/17 10:24:44;;;;;;;12.23;8.55;;;16.70;79.00;;;;;;5083900;28;20013;-80
2021/10/17 10:27:11;;;;;;;11.55;8.45;;;17.20;78.40;;;;;;5089210;28;20100;-81
2021/10/17 10:29:37;;;;;;;11.82;8.20;;;17.90;77.90;;;;;;5083215;28;20013;-82
2021/10/17 10:32:05;;;;;;;11.82;8.00;;;18.50;77.30;;;;;;5088602;28;20020;-78
2021/10/17 10:34:37;;;;;;;10.82;7.97;;;19.20;77.00;;;;;;5092705;28;20039;-76
2021/10/17 10:37:12;;;;;;;23.92;17.35;;;19.90;73.70;;;;;;5085379;28;20048;-76
2021/10/17 10:39:57;;;;;;;17.08;12.30;;;20.20;70.40;;;;;;5089160;28;20028;-77
2021/10/17 10:42:31;;;;;;;44.13;25.98;;;20.30;70.80;;;;;;5090217;28;20059;-76
2021/10/17 10:45:37;;;;;;;26.00;15.57;;;20.60;71.80;;;;;;5092441;28;20031;-77
2021/10/17 10:48:23;;;;;;;17.35;10.23;;;21.00;70.50;;;;;;5077620;28;20063;-78
2021/10/17 10:50:55;;;;;;;15.32;10.90;;;21.00;67.60;;;;;;5082785;28;20035;-78
2021/10/17 10:53:59;;;;;;;13.07;9.27;;;20.90;67.40;;;;;;5081080;28;20161;-80
2021/10/17 10:56:41;;;;;;;13.00;8.95;;;20.80;65.20;;;;;;5044495;28;20033;-82
2021/10/17 10:59:08;;;;;;;12.15;9.13;;;20.60;66.00;;;;;;5043658;28;20044;-81
2021/10/17 11:01:59;;;;;;;11.93;8.70;;;20.30;66.10;;;;;;5071989;28;20112;-82
2021/10/17 11:04:44;;;;;;;11.80;9.40;;;20.10;65.50;;;;;;5096517;28;20016;-78
2021/10/17 11:07:22;;;;;;;14.57;9.38;;;19.90;65.80;;;;;;5079782;28;20025;-82
2021/10/17 11:09:53;;;;;;;12.57;9.82;;;19.70;66.70;;;;;;5077444;28;20027;-82
2021/10/17 11:12:38;;;;;;;13.00;8.77;;;19.80;67.20;;;;;;5088452;28;20391;-78
2021/10/17 11:15:05;;;;;;;14.20;9.90;;;20.10;67.30;;;;;;5085592;28;20059;-79
2021/10/17 11:17:31;;;;;;;11.50;9.05;;;20.30;67.00;;;;;;5086332;28;20456;-79
2021/10/17 11:19:57;;;;;;;12.82;8.77;;;20.60;66.50;;;;;;5093828;28;20095;-79
2021/10/17 11:22:24;;;;;;;10.93;7.97;;;20.90;65.90;;;;;;5090890;28;20043;-79
2021/10/17 11:24:51;;;;;;;15.25;8.73;;;21.30;67.10;;;;;;5079798;28;20020;-79
2021/10/17 11:27:17;;;;;;;12.40;8.02;;;21.80;67.00;;;;;;5088060;28;20103;-79
2021/10/17 11:29:44;;;;;;;13.20;9.13;;;22.10;66.80;;;;;;5079492;28;20040;-79
2021/10/17 11:32:18;;;;;;;12.13;8.43;;;22.30;65.10;;;;;;5082121;28;20403;-81
2021/10/17 11:35:05;;;;;;;11.23;8.43;;;22.40;65.00;;;;;;5094913;28;20024;-80
2021/10/17 11:37:32;;;;;;;10.63;7.88;;;22.50;64.20;;;;;;5090334;28;20045;-84
2021/10/17 11:40:01;;;;;;;12.05;9.27;;;22.70;65.10;;;;;;5089313;28;20020;-83
2021/10/17 11:42:29;;;;;;;11.50;8.38;;;22.80;63.00;;;;;;5087932;28;20023;-83
2021/10/17 11:44:56;;;;;;;11.93;8.50;;;22.80;63.00;;;;;;5099539;28;20103;-81
2021/10/17 11:47:23;;;;;;;11.82;9.02;;;22.80;63.50;;;;;;5094070;28;20104;-82
2021/10/17 11:49:49;;;;;;;13.68;8.50;;;22.70;63.00;;;;;;5085115;28;20085;-81
2021/10/17 11:52:18;;;;;;;12.80;9.10;;;22.50;63.30;;;;;;5080974;28;20434;-82
2021/10/17 11:54:48;;;;;;;12.15;9.27;;;22.40;63.00;;;;;;5087697;28;20028;-80
2021/10/17 11:57:30;;;;;;;11.48;8.88;;;22.20;63.00;;;;;;5087224;28;20461;-80
2021/10/17 11:59:57;;;;;;;;;;;22.10;62.70;;;;;;5088282;28;20095;-81
2021/10/17 12:02:34;;;;;;;21.58;15.63;;;22.10;62.60;;;;;;5095808;28;19915;-81
2021/10/17 12:05:00;;;;;;;14.90;10.32;;;22.10;63.10;;;;;;5089713;28;20025;-81
2021/10/17 12:07:28;;;;;;;13.00;9.38;;;22.10;63.30;;;;;;5080428;28;20501;-82
2021/10/17 12:09:54;;;;;;;12.77;8.95;;;22.20;63.40;;;;;;5080830;28;20020;-83
2021/10/17 12:12:24;;;;;;;11.18;8.40;;;22.30;62.50;;;;;;5087970;28;20031;-83
2021/10/17 12:15:08;;;;;;;10.77;8.18;;;22.40;63.50;;;;;;5097865;28;20028;-79
2021/10/17 12:17:34;;;;;;;16.38;8.30;;;22.50;64.00;;;;;;5087070;28;20491;-78
2021/10/17 12:20:10;;;;;;;13.70;8.68;;;22.50;64.20;;;;;;5095684;28;20016;-78
2021/10/17 12:22:40;;;;;;;12.32;7.72;;;22.60;63.70;;;;;;5092734;28;20039;-78
2021/10/17 12:25:07;;;;;;;13.27;9.30;;;22.70;63.70;;;;;;5093163;28;20020;-78
2021/10/17 12:27:34;;;;;;;11.07;7.82;;;22.80;63.00;;;;;;5091124;28;20053;-79
2021/10/17 12:30:08;;;;;;;9.95;7.93;;;22.80;62.70;;;;;;5087743;28;20024;-77
2021/10/17 12:32:54;;;;;;;12.10;7.97;;;22.90;62.80;;;;;;5087914;28;20024;-89
2021/10/17 12:35:36;;;;;;;10.73;7.63;;;23.10;63.30;;;;;;5083209;28;20045;-80
2021/10/17 12:38:12;;;;;;;11.48;7.72;;;23.20;63.20;;;;;;5081327;28;20044;-81
2021/10/17 12:40:58;;;;;;;13.50;8.70;;;23.20;62.50;;;;;;5080899;28;20020;-81